createdAt,value
2022-10-28T00:01:28.821Z,95173.00
2022-10-28T00:06:05.628Z,95167.00
2022-10-28T00:10:10.444Z,95168.00
2022-10-28T00:14:13.747Z,95168.00
2022-10-28T00:18:15.789Z,95169.00
2022-10-28T00:22:18.858Z,95168.00
2022-10-28T00:26:27.315Z,95164.00
2022-10-28T00:31:31.840Z,95162.00
2022-10-28T00:35:35.156Z,95150.00
2022-10-28T00:39:37.383Z,95163.00
2022-10-28T00:43:45.455Z,95166.00
2022-10-28T00:48:04.914Z,95173.00
2022-10-28T00:53:11.996Z,95158.00
2022-10-28T00:57:19.115Z,95161.00
2022-10-28T01:01:25.701Z,95152.00
2022-10-28T01:11:29.850Z,95151.00
2022-10-28T01:15:51.662Z,95139.00
2022-10-28T01:20:43.332Z,95139.00
2022-10-28T01:25:18.860Z,95139.00
2022-10-28T01:30:05.288Z,95134.00
2022-10-28T01:34:10.853Z,95123.00
2022-10-28T01:39:14.138Z,95124.00
2022-10-28T01:43:39.042Z,95131.00
2022-10-28T01:48:05.397Z,95131.00
2022-10-28T01:58:09.347Z,95131.00
2022-10-28T02:02:11.301Z,95125.00
2022-10-28T02:06:29.073Z,95106.00
2022-10-28T02:10:37.233Z,95099.00
2022-10-28T02:14:57.416Z,95121.00
2022-10-28T02:19:39.872Z,95112.00
2022-10-28T02:24:05.009Z,95108.00
2022-10-28T02:28:56.880Z,95122.00
2022-10-28T02:33:05.092Z,95118.00
2022-10-28T02:37:35.036Z,95118.00
2022-10-28T02:47:39.669Z,95098.00
2022-10-28T02:52:02.648Z,95105.00
2022-10-28T02:56:08.503Z,95109.00
2022-10-28T03:00:15.462Z,95106.00
2022-10-28T03:04:21.784Z,95102.00
2022-10-28T03:08:51.591Z,95111.00
2022-10-28T03:12:54.676Z,95105.00
2022-10-28T03:16:56.642Z,95095.00
2022-10-28T03:20:59.195Z,95104.00
2022-10-28T03:25:01.379Z,95107.00
2022-10-28T03:29:18.688Z,95087.00
2022-10-28T03:33:48.917Z,95092.00
2022-10-28T03:37:55.134Z,95093.00
2022-10-28T03:41:57.093Z,95093.00
2022-10-28T03:45:59.264Z,95087.00
2022-10-28T03:50:29.979Z,95086.00
2022-10-28T03:54:47.432Z,95084.00
2022-10-28T03:58:50.072Z,95095.00
2022-10-28T04:03:20.140Z,95108.00
2022-10-28T04:08:21.119Z,95100.00
2022-10-28T04:13:19.046Z,95093.00
2022-10-28T04:17:22.114Z,95096.00
2022-10-28T04:21:24.226Z,95083.00
2022-10-28T04:25:27.745Z,95076.00
2022-10-28T04:29:29.896Z,95092.00
2022-10-28T04:33:57.183Z,95096.00
2022-10-28T04:37:59.403Z,95102.00
2022-10-28T04:42:02.708Z,95098.00
2022-10-28T04:46:06.231Z,95086.00
2022-10-28T04:50:33.898Z,95077.00
2022-10-28T04:54:56.979Z,95091.00
2022-10-28T04:58:59.578Z,95081.00
2022-10-28T05:03:09.017Z,95084.00
2022-10-28T05:07:12.331Z,95086.00
2022-10-28T05:11:16.457Z,95087.00
2022-10-28T05:15:18.512Z,95094.00
2022-10-28T05:19:20.548Z,95093.00
2022-10-28T05:23:27.143Z,95090.00
2022-10-28T05:27:38.202Z,95090.00
2022-10-28T05:31:40.118Z,95084.00
2022-10-28T05:35:49.617Z,95085.00
2022-10-28T05:40:17.264Z,95095.00
2022-10-28T05:44:19.285Z,95085.00
2022-10-28T05:48:21.634Z,95080.00
2022-10-28T05:52:23.615Z,95079.00
2022-10-28T05:56:26.133Z,95082.00
2022-10-28T06:00:28.199Z,95070.00
2022-10-28T06:04:31.142Z,95081.00
2022-10-28T06:08:33.274Z,95082.00
2022-10-28T06:12:59.383Z,95103.00
2022-10-28T06:17:01.493Z,95102.00
2022-10-28T06:21:03.879Z,95096.00
2022-10-28T06:25:06.321Z,95106.00
2022-10-28T06:29:11.630Z,95104.00
2022-10-28T06:33:15.769Z,95090.00
2022-10-28T06:37:21.811Z,95099.00
2022-10-28T06:41:23.848Z,95101.00
2022-10-28T06:45:27.417Z,95103.00
2022-10-28T06:49:30.841Z,95093.00
2022-10-28T06:59:32.302Z,95105.00
2022-10-28T07:03:53.780Z,95113.00
2022-10-28T07:07:56.112Z,95113.00
2022-10-28T07:12:28.025Z,95128.00
2022-10-28T07:16:32.075Z,95130.00
2022-10-28T07:20:34.122Z,95128.00
2022-10-28T07:24:36.550Z,95128.00
2022-10-28T07:28:38.556Z,95125.00
2022-10-28T07:32:42.719Z,95124.00
2022-10-28T07:36:44.847Z,95126.00
2022-10-28T07:42:06.902Z,95125.00
2022-10-28T07:46:10.979Z,95122.00
2022-10-28T07:50:17.851Z,95122.00
2022-10-28T07:54:21.323Z,95119.00
2022-10-28T07:58:23.316Z,95127.00
2022-10-28T08:02:25.786Z,95125.00
2022-10-28T08:06:27.826Z,95133.00
2022-10-28T08:11:39.267Z,95132.00
2022-10-28T08:15:41.284Z,95132.00
2022-10-28T08:19:43.210Z,95126.00
2022-10-28T08:24:39.050Z,95133.00
2022-10-28T08:28:43.214Z,95134.00
2022-10-28T08:32:45.200Z,95148.00
2022-10-28T08:36:52.172Z,95137.00
2022-10-28T08:41:25.241Z,95156.00
2022-10-28T08:46:06.130Z,95154.00
2022-10-28T08:50:18.494Z,95152.00
2022-10-28T08:54:34.491Z,95147.00
2022-10-28T08:58:39.374Z,95139.00
2022-10-28T09:08:29.311Z,95143.00
2022-10-28T09:18:37.805Z,95149.00
2022-10-28T09:23:18.490Z,95149.00
2022-10-28T09:27:51.975Z,95153.00
2022-10-28T09:32:16.400Z,95151.00
2022-10-28T09:36:34.659Z,95142.00
2022-10-28T09:40:42.119Z,95155.00
2022-10-28T09:45:55.308Z,95163.00
2022-10-28T09:50:01.424Z,95171.00
2022-10-28T09:54:03.436Z,95159.00
2022-10-28T09:58:05.855Z,95175.00
2022-10-28T10:02:38.520Z,95165.00
2022-10-28T10:06:43.024Z,95167.00
2022-10-28T10:10:48.291Z,95168.00
2022-10-28T10:14:52.393Z,95171.00
2022-10-28T10:18:57.919Z,95174.00
2022-10-28T10:22:59.916Z,95169.00
2022-10-28T10:27:20.857Z,95174.00
2022-10-28T10:31:29.881Z,95164.00
2022-10-28T10:36:10.836Z,95166.00
2022-10-28T10:46:18.097Z,95159.00
2022-10-28T10:50:38.049Z,95161.00
2022-10-28T10:54:58.330Z,95163.00
2022-10-28T10:59:04.001Z,95151.00
2022-10-28T11:03:27.309Z,95149.00
2022-10-28T11:07:30.794Z,95147.00
2022-10-28T11:12:45.902Z,95141.00
2022-10-28T11:17:49.948Z,95134.00
2022-10-28T11:22:10.302Z,95141.00
2022-10-28T11:26:16.126Z,95144.00
2022-10-28T11:30:27.245Z,95145.00
2022-10-28T11:34:58.662Z,95132.00
2022-10-28T11:39:21.952Z,95131.00
2022-10-28T11:44:06.025Z,95131.00
2022-10-28T11:48:57.803Z,95134.00
2022-10-28T11:53:52.896Z,95125.00
2022-10-28T11:58:15.404Z,95126.00
2022-10-28T12:02:52.383Z,95119.00
2022-10-28T12:07:14.583Z,95118.00
2022-10-28T12:11:28.905Z,95119.00
2022-10-28T12:15:56.206Z,95123.00
2022-10-28T12:20:28.996Z,95106.00
2022-10-28T12:24:35.805Z,95104.00
2022-10-28T12:28:43.836Z,95087.00
2022-10-28T12:38:26.895Z,95101.00
2022-10-28T12:43:19.975Z,95100.00
2022-10-28T12:48:12.046Z,95103.00
2022-10-28T12:52:24.427Z,95106.00
2022-10-28T12:57:29.719Z,95096.00
2022-10-28T13:01:35.068Z,95087.00
2022-10-28T13:05:42.965Z,95095.00
2022-10-28T13:10:20.536Z,95093.00
2022-10-28T13:15:15.392Z,95096.00
2022-10-28T13:19:46.414Z,95093.00
2022-10-28T13:24:19.497Z,95107.00
2022-10-28T13:28:29.362Z,95098.00
2022-10-28T13:32:45.096Z,95085.00
2022-10-28T13:42:18.305Z,95094.00
2022-10-28T13:46:57.940Z,95100.00
2022-10-28T13:51:11.881Z,95091.00
2022-10-28T13:55:51.561Z,95088.00
2022-10-28T14:00:15.289Z,95092.00
2022-10-28T14:04:30.127Z,95097.00
2022-10-28T14:08:40.204Z,95091.00
2022-10-28T14:13:20.551Z,95097.00
2022-10-28T14:17:30.996Z,95109.00
2022-10-28T14:22:02.738Z,95101.00
2022-10-28T14:26:06.339Z,95094.00
2022-10-28T14:30:19.891Z,95100.00
2022-10-28T14:34:42.304Z,95109.00
2022-10-28T14:38:53.729Z,95095.00
2022-10-28T14:43:31.147Z,95095.00
2022-10-28T14:48:22.573Z,95093.00
2022-10-28T14:52:24.929Z,95099.00
2022-10-28T14:56:37.687Z,95097.00
2022-10-28T15:01:16.488Z,95090.00
2022-10-28T15:05:26.239Z,95082.00
2022-10-28T15:09:55.597Z,95085.00
2022-10-28T15:14:24.888Z,95076.00
2022-10-28T15:18:31.312Z,95068.00
2022-10-28T15:22:33.481Z,95076.00
2022-10-28T15:26:36.973Z,95069.00
2022-10-28T15:30:45.994Z,95065.00
2022-10-28T15:34:54.016Z,95070.00
2022-10-28T15:38:58.954Z,95063.00
2022-10-28T15:44:04.197Z,95053.00
2022-10-28T15:48:18.818Z,95047.00
2022-10-28T15:52:30.752Z,95063.00
2022-10-28T15:56:57.435Z,95066.00
2022-10-28T16:01:01.728Z,95068.00
2022-10-28T16:05:33.349Z,95063.00
2022-10-28T16:09:43.436Z,95055.00
2022-10-28T16:14:50.825Z,95070.00
2022-10-28T16:19:25.385Z,95074.00
2022-10-28T16:23:34.179Z,95065.00
2022-10-28T16:28:45.485Z,95069.00
2022-10-28T16:32:53.877Z,95068.00
2022-10-28T16:37:24.425Z,95069.00
2022-10-28T16:41:53.087Z,95077.00
2022-10-28T16:46:07.370Z,95074.00
2022-10-28T16:50:09.866Z,95073.00
2022-10-28T16:54:13.470Z,95076.00
2022-10-28T16:59:17.259Z,95072.00
2022-10-28T17:03:21.670Z,95075.00
2022-10-28T17:07:43.482Z,95072.00
2022-10-28T17:11:45.727Z,95064.00
2022-10-28T17:16:08.295Z,95076.00
2022-10-28T17:20:16.747Z,95066.00
2022-10-28T17:24:20.549Z,95069.00
2022-10-28T17:28:35.146Z,95080.00
2022-10-28T17:32:37.329Z,95076.00
2022-10-28T17:36:39.561Z,95083.00
2022-10-28T17:40:41.516Z,95073.00
2022-10-28T17:45:05.849Z,95078.00
2022-10-28T17:49:34.441Z,95075.00
2022-10-28T17:53:55.531Z,95071.00
2022-10-28T18:04:46.837Z,95071.00
2022-10-28T18:09:15.122Z,95073.00
2022-10-28T18:13:17.310Z,95060.00
2022-10-28T18:17:52.296Z,95071.00
2022-10-28T18:21:59.402Z,95072.00
2022-10-28T18:26:17.671Z,95075.00
2022-10-28T18:30:19.636Z,95068.00
2022-10-28T18:34:22.033Z,95057.00
2022-10-28T18:38:24.121Z,95054.00
2022-10-28T18:42:57.092Z,95055.00
2022-10-28T18:47:58.272Z,95064.00
2022-10-28T18:52:01.131Z,95068.00
2022-10-28T18:56:23.326Z,95074.00
2022-10-28T19:00:30.255Z,95071.00
2022-10-28T19:04:32.331Z,95051.00
2022-10-28T19:08:35.297Z,95060.00
2022-10-28T19:13:35.048Z,95058.00
2022-10-28T19:17:41.402Z,95062.00
2022-10-28T19:21:43.561Z,95060.00
2022-10-28T19:32:17.218Z,95058.00
2022-10-28T19:37:10.459Z,95059.00
2022-10-28T19:41:15.691Z,95050.00
2022-10-28T19:45:17.818Z,95047.00
2022-10-28T19:49:22.398Z,95052.00
2022-10-28T19:53:57.636Z,95060.00
2022-10-28T19:58:00.766Z,95064.00
2022-10-28T20:02:20.566Z,95065.00
2022-10-28T20:12:27.410Z,95056.00
2022-10-28T20:17:07.267Z,95061.00
2022-10-28T20:21:35.281Z,95063.00
2022-10-28T20:25:37.295Z,95055.00
2022-10-28T20:30:06.415Z,95056.00
2022-10-28T20:34:15.862Z,95054.00
2022-10-28T20:38:18.977Z,95044.00
2022-10-28T20:42:40.383Z,95046.00
2022-10-28T20:46:45.067Z,95026.00
2022-10-28T20:56:53.489Z,95058.00
2022-10-28T21:01:09.154Z,95041.00
2022-10-28T21:05:11.120Z,95057.00
2022-10-28T21:09:19.919Z,95043.00
2022-10-28T21:13:21.830Z,95043.00
2022-10-28T21:17:26.070Z,95050.00
2022-10-28T21:21:37.185Z,95046.00
2022-10-28T21:25:40.167Z,95044.00
2022-10-28T21:29:42.460Z,95039.00
2022-10-28T21:33:46.132Z,95043.00
2022-10-28T21:37:48.176Z,95032.00
2022-10-28T21:42:17.566Z,95048.00
2022-10-28T21:46:24.423Z,95044.00
2022-10-28T21:51:37.494Z,95043.00
2022-10-28T21:55:47.710Z,95038.00
2022-10-28T21:59:52.276Z,95024.00
2022-10-28T22:03:55.288Z,95034.00
2022-10-28T22:08:03.144Z,95027.00
2022-10-28T22:12:56.628Z,95028.00
2022-10-28T22:22:58.268Z,95035.00
2022-10-28T22:27:04.929Z,95032.00
2022-10-28T22:31:09.673Z,95026.00
2022-10-28T22:35:11.813Z,95018.00
2022-10-28T22:39:13.760Z,95022.00
2022-10-28T22:43:15.728Z,95028.00
2022-10-28T22:47:18.987Z,94999.00
2022-10-28T22:51:21.770Z,95016.00
2022-10-28T22:56:01.247Z,95009.00
2022-10-28T23:00:03.913Z,95009.00
2022-10-28T23:04:11.077Z,94997.00
2022-10-28T23:08:15.518Z,95003.00
2022-10-28T23:12:20.677Z,95001.00
2022-10-28T23:16:24.671Z,95000.00
2022-10-28T23:20:42.117Z,95004.00
2022-10-28T23:24:44.303Z,95004.00
2022-10-28T23:28:51.014Z,95006.00
2022-10-28T23:33:51.978Z,94996.00
2022-10-28T23:37:54.393Z,94990.00
2022-10-28T23:47:49.973Z,95006.00
2022-10-28T23:52:17.833Z,95006.00
2022-10-28T23:56:20.103Z,94988.00
